createdAt,value
2019-02-11T00:01:21.007Z,1.97
2019-02-11T00:03:48.883Z,0.90
2019-02-11T00:06:16.697Z,1.07
2019-02-11T00:08:44.616Z,1.27
2019-02-11T00:11:12.479Z,1.30
2019-02-11T00:13:40.265Z,1.30
2019-02-11T00:16:08.616Z,1.70
2019-02-11T00:18:36.854Z,1.33
2019-02-11T00:21:04.670Z,0.97
2019-02-11T00:23:32.478Z,0.90
2019-02-11T00:26:00.249Z,0.87
2019-02-11T00:28:28.547Z,0.80
2019-02-11T00:31:00.413Z,1.40
2019-02-11T00:33:28.224Z,0.80
2019-02-11T00:35:56.023Z,0.80
2019-02-11T00:38:23.877Z,1.47
2019-02-11T00:40:51.724Z,1.00
2019-02-11T00:43:19.621Z,0.80
2019-02-11T00:45:48.474Z,1.30
2019-02-11T00:48:16.737Z,0.63
2019-02-11T00:50:44.660Z,1.10
2019-02-11T00:53:12.607Z,1.10
2019-02-11T00:55:40.491Z,0.80
2019-02-11T00:58:08.681Z,1.00
2019-02-11T01:00:37.502Z,0.90
2019-02-11T01:03:05.676Z,0.80
2019-02-11T01:05:33.542Z,0.97
2019-02-11T01:08:01.328Z,1.37
2019-02-11T01:10:29.298Z,1.10
2019-02-11T01:12:57.171Z,1.20
2019-02-11T01:15:25.055Z,1.33
2019-02-11T01:17:52.931Z,2.10
2019-02-11T01:20:20.922Z,1.20
2019-02-11T01:22:48.764Z,0.80
2019-02-11T01:25:16.584Z,0.93
2019-02-11T01:27:44.859Z,0.83
2019-02-11T01:30:12.777Z,1.13
2019-02-11T01:32:40.613Z,1.83
2019-02-11T01:35:08.444Z,0.83
2019-02-11T01:37:36.620Z,1.13
2019-02-11T01:40:05.200Z,1.77
2019-02-11T01:42:33.072Z,0.60
2019-02-11T01:45:00.920Z,1.27
2019-02-11T01:47:28.760Z,1.30
2019-02-11T01:49:56.565Z,1.40
2019-02-11T01:52:24.856Z,1.90
2019-02-11T01:54:52.908Z,1.53
2019-02-11T01:57:20.778Z,1.53
2019-02-11T01:59:49.726Z,2.00
2019-02-11T02:02:17.587Z,2.47
2019-02-11T02:04:45.401Z,1.10
2019-02-11T02:07:13.286Z,1.87
2019-02-11T02:09:41.027Z,1.47
2019-02-11T02:12:08.855Z,1.03
2019-02-11T02:14:36.812Z,1.37
2019-02-11T02:17:04.931Z,1.27
2019-02-11T02:19:32.687Z,1.60
2019-02-11T02:22:00.525Z,2.10
2019-02-11T02:24:28.346Z,1.67
2019-02-11T02:26:56.515Z,2.00
2019-02-11T02:29:24.453Z,1.50
2019-02-11T02:31:53.242Z,1.20
2019-02-11T02:34:21.028Z,2.33
2019-02-11T02:36:48.836Z,1.70
2019-02-11T02:39:16.733Z,2.93
2019-02-11T02:41:44.890Z,1.30
2019-02-11T02:44:12.731Z,2.00
2019-02-11T02:46:40.612Z,2.00
2019-02-11T02:49:08.433Z,1.40
2019-02-11T02:51:36.201Z,1.50
2019-02-11T02:54:04.399Z,1.53
2019-02-11T02:56:32.203Z,2.03
2019-02-11T02:59:00.360Z,1.53
2019-02-11T03:01:28.160Z,4.07
2019-02-11T03:03:55.936Z,1.67
2019-02-11T03:06:23.896Z,2.33
2019-02-11T03:08:52.750Z,1.63
2019-02-11T03:11:20.549Z,1.87
2019-02-11T03:13:48.412Z,2.10
2019-02-11T03:16:16.349Z,2.03
2019-02-11T03:18:44.161Z,1.53
2019-02-11T03:21:12.029Z,1.70
2019-02-11T03:23:39.948Z,2.30
2019-02-11T03:26:08.822Z,1.70
2019-02-11T03:28:37.026Z,1.60
2019-02-11T03:31:04.944Z,3.93
2019-02-11T03:33:32.833Z,1.37
2019-02-11T03:36:01.098Z,1.57
2019-02-11T03:38:29.590Z,1.90
2019-02-11T03:40:57.827Z,1.83
2019-02-11T03:43:25.634Z,1.13
2019-02-11T03:45:53.465Z,1.77
2019-02-11T03:48:21.394Z,1.73
2019-02-11T03:50:49.495Z,1.77
2019-02-11T03:53:17.570Z,1.47
2019-02-11T03:55:45.649Z,2.40
2019-02-11T03:58:14.509Z,1.20
2019-02-11T04:00:42.319Z,1.50
2019-02-11T04:03:10.549Z,1.43
2019-02-11T04:05:38.725Z,1.20
2019-02-11T04:08:06.558Z,0.87
2019-02-11T04:10:34.488Z,2.23
2019-02-11T04:13:03.421Z,1.23
2019-02-11T04:15:31.241Z,1.53
2019-02-11T04:17:59.140Z,0.90
2019-02-11T04:20:26.981Z,1.00
2019-02-11T04:22:54.894Z,2.20
2019-02-11T04:25:22.743Z,1.53
2019-02-11T04:27:50.623Z,0.83
2019-02-11T04:30:18.481Z,1.30
2019-02-11T04:32:47.540Z,0.93
2019-02-11T04:35:15.735Z,1.63
2019-02-11T04:37:43.877Z,1.10
2019-02-11T04:40:11.755Z,1.20
2019-02-11T04:42:39.627Z,1.43
2019-02-11T04:45:08.053Z,1.20
2019-02-11T04:47:36.137Z,1.00
2019-02-11T04:50:08.624Z,1.40
2019-02-11T04:52:38.153Z,1.50
2019-02-11T04:55:06.302Z,1.40
2019-02-11T04:57:34.700Z,1.63
2019-02-11T05:00:02.604Z,1.00
2019-02-11T05:02:30.991Z,1.27
2019-02-11T05:04:58.846Z,0.80
2019-02-11T05:07:27.847Z,1.67
2019-02-11T05:09:55.988Z,1.20
2019-02-11T05:12:26.116Z,1.10
2019-02-11T05:14:54.279Z,1.10
2019-02-11T05:17:22.741Z,1.43
2019-02-11T05:19:51.687Z,1.27
2019-02-11T05:22:25.878Z,1.40
2019-02-11T05:24:56.166Z,1.10
2019-02-11T05:27:24.357Z,0.87
2019-02-11T05:29:52.508Z,1.07
2019-02-11T05:32:20.560Z,1.20
2019-02-11T05:34:48.538Z,1.27
2019-02-11T05:37:16.663Z,0.70
2019-02-11T05:39:45.183Z,1.60
2019-02-11T05:42:13.210Z,1.40
2019-02-11T05:44:41.173Z,1.00
2019-02-11T05:47:09.111Z,1.37
2019-02-11T05:49:36.910Z,1.53
2019-02-11T05:52:05.343Z,1.13
2019-02-11T05:54:33.155Z,1.90
2019-02-11T05:57:00.954Z,1.83
2019-02-11T05:59:29.101Z,2.43
2019-02-11T06:01:56.894Z,1.93
2019-02-11T06:04:24.666Z,5.07
2019-02-11T06:06:52.545Z,2.30
2019-02-11T06:09:20.296Z,4.47
2019-02-11T06:11:48.172Z,2.63
2019-02-11T06:14:15.929Z,2.27
2019-02-11T06:16:43.799Z,2.60
2019-02-11T06:19:11.603Z,2.97
2019-02-11T06:21:39.436Z,3.73
2019-02-11T06:24:07.669Z,3.30
2019-02-11T06:26:36.601Z,2.67
2019-02-11T06:29:04.498Z,4.07
2019-02-11T06:31:32.753Z,4.33
2019-02-11T06:34:00.722Z,4.20
2019-02-11T06:36:28.608Z,3.60
2019-02-11T06:38:57.949Z,4.70
2019-02-11T06:41:25.671Z,5.87
2019-02-11T06:43:56.143Z,6.00
2019-02-11T06:46:24.419Z,5.30
2019-02-11T06:48:52.532Z,5.93
2019-02-11T06:51:20.485Z,8.10
2019-02-11T06:53:48.900Z,12.50
2019-02-11T06:56:16.781Z,14.63
2019-02-11T06:58:44.705Z,13.33
2019-02-11T07:01:12.751Z,10.70
2019-02-11T07:03:40.716Z,8.73
2019-02-11T07:06:08.643Z,13.47
2019-02-11T07:08:37.099Z,19.20
2019-02-11T07:11:05.091Z,11.27
2019-02-11T07:13:32.908Z,16.13
2019-02-11T07:16:01.094Z,10.07
2019-02-11T07:18:28.975Z,15.33
2019-02-11T07:20:57.098Z,28.10
2019-02-11T07:23:25.134Z,12.67
2019-02-11T07:25:53.561Z,15.43
2019-02-11T07:28:21.476Z,21.70
2019-02-11T07:30:49.879Z,10.37
2019-02-11T07:33:18.030Z,18.37
2019-02-11T07:35:45.912Z,19.37
2019-02-11T07:38:13.707Z,19.50
2019-02-11T07:40:44.517Z,19.23
2019-02-11T07:43:31.936Z,20.07
2019-02-11T07:46:04.284Z,17.80
2019-02-11T07:48:33.263Z,32.43
2019-02-11T07:51:01.282Z,20.13
2019-02-11T07:53:29.578Z,24.30
2019-02-11T07:55:57.396Z,19.47
2019-02-11T07:58:25.374Z,20.63
2019-02-11T08:00:54.657Z,20.67
2019-02-11T08:03:22.481Z,24.17
2019-02-11T08:05:50.718Z,22.57
2019-02-11T08:08:18.695Z,20.77
2019-02-11T08:10:46.506Z,22.10
2019-02-11T08:13:14.700Z,25.70
2019-02-11T08:15:42.562Z,21.03
2019-02-11T08:18:10.737Z,14.17
2019-02-11T08:20:38.529Z,15.67
2019-02-11T08:23:12.961Z,7.23
2019-02-11T08:25:36.073Z,8.30
2019-02-11T08:28:03.957Z,6.17
2019-02-11T08:30:31.959Z,5.97
2019-02-11T08:32:59.823Z,4.47
2019-02-11T08:35:29.039Z,4.13
2019-02-11T08:37:56.893Z,3.10
2019-02-11T08:40:26.158Z,3.03
2019-02-11T08:42:54.046Z,3.43
2019-02-11T08:45:22.283Z,2.40
2019-02-11T08:47:51.084Z,2.77
2019-02-11T08:50:18.992Z,2.30
2019-02-11T08:52:46.747Z,3.50
2019-02-11T08:55:14.633Z,2.93
2019-02-11T08:57:43.306Z,2.83
2019-02-11T09:00:12.263Z,2.40
2019-02-11T09:02:40.116Z,2.60
2019-02-11T09:05:10.050Z,2.23
2019-02-11T09:07:38.889Z,1.63
2019-02-11T09:10:07.124Z,2.03
2019-02-11T09:12:36.511Z,1.87
2019-02-11T09:15:06.967Z,1.77
2019-02-11T09:17:40.787Z,1.87
2019-02-11T09:20:16.902Z,2.27
2019-02-11T09:22:47.696Z,2.53
2019-02-11T09:25:17.286Z,1.87
2019-02-11T09:27:47.231Z,2.87
2019-02-11T09:30:16.466Z,2.00
2019-02-11T09:32:45.047Z,1.80
2019-02-11T09:35:13.638Z,1.60
2019-02-11T09:37:41.597Z,1.53
2019-02-11T09:40:10.652Z,1.73
2019-02-11T09:42:38.953Z,2.17
2019-02-11T09:45:08.537Z,2.20
2019-02-11T09:51:30.712Z,2.93
2019-02-11T09:53:59.144Z,1.50
2019-02-11T09:56:27.409Z,1.20
2019-02-11T09:59:09.417Z,1.20
2019-02-11T10:01:58.474Z,1.30
2019-02-11T10:04:27.988Z,1.17
2019-02-11T10:06:56.842Z,1.10
2019-02-11T10:09:26.015Z,1.30
2019-02-11T10:11:54.246Z,2.20
2019-02-11T10:14:22.233Z,1.80
2019-02-11T10:16:51.762Z,1.33
2019-02-11T10:19:20.353Z,1.20
2019-02-11T10:21:50.890Z,0.90
2019-02-11T10:24:20.001Z,1.07
2019-02-11T10:26:49.727Z,1.20
2019-02-11T10:32:48.487Z,1.00
2019-02-11T10:35:16.627Z,1.27
2019-02-11T10:37:45.239Z,0.97
2019-02-11T10:40:14.184Z,1.10
2019-02-11T10:42:43.814Z,1.17
2019-02-11T10:45:12.633Z,1.10
2019-02-11T10:47:41.312Z,1.13
2019-02-11T10:50:09.805Z,0.93
2019-02-11T10:52:37.772Z,1.37
2019-02-11T10:55:06.772Z,0.70
2019-02-11T10:57:34.770Z,1.83
2019-02-11T11:00:03.805Z,0.90
2019-02-11T11:02:31.639Z,0.60
2019-02-11T11:04:59.526Z,0.90
2019-02-11T11:07:27.702Z,1.07
2019-02-11T11:09:55.708Z,0.50
2019-02-11T11:12:24.011Z,1.77
2019-02-11T11:14:52.236Z,1.40
2019-02-11T11:17:20.114Z,0.80
2019-02-11T11:19:50.108Z,1.00
2019-02-11T11:22:17.967Z,0.80
2019-02-11T11:24:45.971Z,1.70
2019-02-11T11:27:14.166Z,0.80
2019-02-11T11:29:42.131Z,1.53
2019-02-11T11:32:10.073Z,1.43
2019-02-11T11:34:38.348Z,1.07
2019-02-11T11:37:08.381Z,1.60
2019-02-11T11:39:36.697Z,1.43
2019-02-11T11:42:04.514Z,1.00
2019-02-11T11:44:32.540Z,0.67
2019-02-11T11:47:00.953Z,1.07
2019-02-11T11:49:28.981Z,0.93
2019-02-11T11:51:56.939Z,1.00
2019-02-11T11:54:24.958Z,0.93
2019-02-11T11:56:52.860Z,0.80
2019-02-11T11:59:21.265Z,1.80
2019-02-11T12:01:49.107Z,1.33
2019-02-11T12:04:17.065Z,0.90
2019-02-11T12:06:45.031Z,0.87
2019-02-11T12:09:12.981Z,0.53
2019-02-11T12:11:40.974Z,0.60
2019-02-11T12:14:14.708Z,0.90
2019-02-11T12:17:08.436Z,1.10
2019-02-11T12:19:41.471Z,1.37
2019-02-11T12:22:13.462Z,1.30
2019-02-11T12:24:42.643Z,1.97
2019-02-11T12:27:16.372Z,1.60
2019-02-11T12:29:49.856Z,0.90
2019-02-11T12:32:55.431Z,0.80
2019-02-11T12:35:24.918Z,0.80
2019-02-11T12:37:54.880Z,0.67
2019-02-11T12:40:27.229Z,1.23
2019-02-11T12:43:19.842Z,0.60
2019-02-11T12:45:48.157Z,1.30
2019-02-11T12:48:16.058Z,1.20
2019-02-11T12:50:45.173Z,1.30
2019-02-11T12:53:13.159Z,1.33
2019-02-11T12:55:43.620Z,0.60
2019-02-11T12:58:11.562Z,0.77
2019-02-11T13:00:40.074Z,0.83
2019-02-11T13:03:08.196Z,1.23
2019-02-11T13:05:45.060Z,0.70
2019-02-11T13:08:05.728Z,1.23
2019-02-11T13:10:33.717Z,1.07
2019-02-11T13:13:01.586Z,0.77
2019-02-11T13:15:56.545Z,1.00
2019-02-11T13:17:59.368Z,1.10
2019-02-11T13:20:28.384Z,1.43
2019-02-11T13:22:56.912Z,1.80
2019-02-11T13:25:24.958Z,1.13
2019-02-11T13:27:52.919Z,1.00
2019-02-11T13:30:20.984Z,1.43
2019-02-11T13:32:49.476Z,1.43
2019-02-11T13:35:17.676Z,1.30
2019-02-11T13:37:45.842Z,1.57
2019-02-11T13:40:14.266Z,1.10
2019-02-11T13:42:42.323Z,1.20
2019-02-11T13:45:12.289Z,1.13
2019-02-11T13:47:53.327Z,1.40
2019-02-11T13:50:11.745Z,0.50
2019-02-11T13:52:40.201Z,0.77
2019-02-11T13:55:08.158Z,0.70
2019-02-11T13:57:36.603Z,1.13
2019-02-11T14:00:08.591Z,0.80
2019-02-11T14:02:39.774Z,1.23
2019-02-11T14:05:07.820Z,0.87
2019-02-11T14:07:36.702Z,0.93
2019-02-11T14:10:05.798Z,0.63
2019-02-11T14:12:34.065Z,0.60
2019-02-11T14:15:04.059Z,0.50
2019-02-11T14:17:32.194Z,0.80
2019-02-11T14:20:01.725Z,1.10
2019-02-11T14:22:29.833Z,1.17
2019-02-11T14:24:57.990Z,0.90
2019-02-11T14:27:25.913Z,0.90
2019-02-11T14:29:53.851Z,0.73
2019-02-11T14:32:21.945Z,1.50
2019-02-11T14:34:49.934Z,1.23
2019-02-11T14:37:18.071Z,0.90
2019-02-11T14:39:46.230Z,1.17
2019-02-11T14:42:15.213Z,0.73
2019-02-11T14:44:43.528Z,1.20
2019-02-11T14:47:11.557Z,0.97
2019-02-11T14:49:39.886Z,1.10
2019-02-11T14:52:07.775Z,0.60
2019-02-11T14:54:35.801Z,0.93
2019-02-11T14:57:03.978Z,1.03
2019-02-11T14:59:31.945Z,1.10
2019-02-11T15:01:59.925Z,0.90
2019-02-11T15:04:27.769Z,0.97
2019-02-11T15:06:55.627Z,1.00
2019-02-11T15:09:24.228Z,1.33
2019-02-11T15:11:52.246Z,1.50
2019-02-11T15:14:20.125Z,1.23
2019-02-11T15:16:47.939Z,1.00
2019-02-11T15:19:15.780Z,1.50
2019-02-11T15:21:44.318Z,1.43
2019-02-11T15:24:14.039Z,1.20
2019-02-11T15:26:42.580Z,1.00
2019-02-11T15:29:11.462Z,1.20
2019-02-11T15:31:39.329Z,0.73
2019-02-11T15:34:07.495Z,1.00
2019-02-11T15:36:35.394Z,0.87
2019-02-11T15:39:04.250Z,0.80
2019-02-11T15:41:32.219Z,0.90
2019-02-11T15:44:00.078Z,1.20
2019-02-11T15:46:27.932Z,1.20
2019-02-11T15:48:55.870Z,1.30
2019-02-11T15:51:24.137Z,0.97
2019-02-11T15:53:52.174Z,1.10
2019-02-11T15:56:20.105Z,0.60
2019-02-11T15:58:48.059Z,1.23
2019-02-11T16:01:15.946Z,0.97
2019-02-11T16:03:44.423Z,0.93
2019-02-11T16:06:12.725Z,0.40
2019-02-11T16:08:40.917Z,0.90
2019-02-11T16:11:09.905Z,0.93
2019-02-11T16:13:37.984Z,2.80
2019-02-11T16:16:06.349Z,2.27
2019-02-11T16:18:34.638Z,1.43
2019-02-11T16:21:04.477Z,4.03
2019-02-11T16:23:33.423Z,2.10
2019-02-11T16:26:01.477Z,1.50
2019-02-11T16:28:29.965Z,1.10
2019-02-11T16:31:00.626Z,1.00
2019-02-11T16:33:30.943Z,1.13
2019-02-11T16:35:59.565Z,0.80
2019-02-11T16:38:28.207Z,1.90
2019-02-11T16:41:02.035Z,1.40
2019-02-11T16:43:33.749Z,0.47
2019-02-11T16:46:05.247Z,1.17
2019-02-11T16:48:34.975Z,1.73
2019-02-11T16:51:04.758Z,1.70
2019-02-11T16:53:34.566Z,1.43
2019-02-11T16:59:40.155Z,1.40
2019-02-11T17:02:08.365Z,1.57
2019-02-11T17:04:37.940Z,0.93
2019-02-11T17:07:06.561Z,1.83
2019-02-11T17:09:35.717Z,2.10
2019-02-11T17:12:13.241Z,1.63
2019-02-11T17:14:45.002Z,1.07
2019-02-11T17:17:16.146Z,1.40
2019-02-11T17:19:47.996Z,1.80
2019-02-11T17:22:16.932Z,1.57
2019-02-11T17:24:45.124Z,3.00
2019-02-11T17:27:13.172Z,2.83
2019-02-11T17:29:45.834Z,2.60
2019-02-11T17:32:16.859Z,3.47
2019-02-11T17:34:45.471Z,3.10
2019-02-11T17:37:17.815Z,4.33
2019-02-11T17:39:48.377Z,8.53
2019-02-11T17:42:17.695Z,2.47
2019-02-11T17:44:49.618Z,3.43
2019-02-11T17:47:26.541Z,15.27
2019-02-11T17:49:57.929Z,7.53
2019-02-11T17:52:27.423Z,5.00
2019-02-11T17:54:59.764Z,6.00
2019-02-11T17:57:31.891Z,9.43
2019-02-11T18:00:08.770Z,5.67
2019-02-11T18:02:38.290Z,8.70
2019-02-11T18:05:08.349Z,6.93
2019-02-11T18:07:42.582Z,6.87
2019-02-11T18:14:16.151Z,5.23
2019-02-11T18:17:00.195Z,5.30
2019-02-11T18:19:29.611Z,5.57
2019-02-11T18:22:05.147Z,4.27
2019-02-11T18:24:35.982Z,8.13
2019-02-11T18:27:09.724Z,7.80
2019-02-11T18:29:39.970Z,5.93
2019-02-11T18:32:09.595Z,8.30
2019-02-11T18:34:38.869Z,9.13
2019-02-11T18:37:26.205Z,9.20
2019-02-11T18:39:54.722Z,17.12
2019-02-11T18:42:26.312Z,12.60
2019-02-11T18:45:00.709Z,11.77
2019-02-11T18:47:29.932Z,11.00
2019-02-11T18:49:58.256Z,9.33
2019-02-11T18:52:28.000Z,9.93
2019-02-11T18:54:59.106Z,9.97
2019-02-11T18:57:29.728Z,10.10
2019-02-11T19:03:01.156Z,10.10
2019-02-11T19:05:53.511Z,8.40
2019-02-11T19:08:31.692Z,7.93
2019-02-11T19:11:06.576Z,10.03
2019-02-11T19:13:40.241Z,9.00
2019-02-11T19:16:10.622Z,10.53
2019-02-11T19:18:39.524Z,19.55
2019-02-11T19:21:08.392Z,14.30
2019-02-11T19:23:40.370Z,12.73
2019-02-11T19:26:23.959Z,14.30
2019-02-11T19:28:58.895Z,12.17
2019-02-11T19:31:27.047Z,12.73
2019-02-11T19:33:55.120Z,13.13
2019-02-11T19:36:24.634Z,13.60
2019-02-11T19:38:52.724Z,14.47
2019-02-11T19:41:22.170Z,13.33
2019-02-11T19:43:50.314Z,12.87
2019-02-11T19:46:18.425Z,15.03
2019-02-11T19:48:46.610Z,16.10
2019-02-11T19:51:14.772Z,15.03
2019-02-11T19:53:42.780Z,14.83
2019-02-11T19:56:11.230Z,14.23
2019-02-11T19:58:39.229Z,14.13
2019-02-11T20:01:07.247Z,13.73
2019-02-11T20:03:35.245Z,14.07
2019-02-11T20:06:03.209Z,14.63
2019-02-11T20:08:31.671Z,13.93
2019-02-11T20:10:59.653Z,13.27
2019-02-11T20:13:27.745Z,13.23
2019-02-11T20:15:55.738Z,14.23
2019-02-11T20:18:24.047Z,14.77
2019-02-11T20:20:52.071Z,15.73
2019-02-11T20:23:20.117Z,14.60
2019-02-11T20:25:48.290Z,16.20
2019-02-11T20:28:16.324Z,15.83
2019-02-11T20:30:44.463Z,15.83
2019-02-11T20:33:12.798Z,15.13
2019-02-11T20:35:40.699Z,15.63
2019-02-11T20:38:08.969Z,14.77
2019-02-11T20:40:36.975Z,16.83
2019-02-11T20:43:05.019Z,17.00
2019-02-11T20:45:34.414Z,17.97
2019-02-11T20:48:03.288Z,18.17
2019-02-11T20:50:31.798Z,19.00
2019-02-11T20:53:01.861Z,26.97
2019-02-11T20:55:30.389Z,20.27
2019-02-11T20:57:58.493Z,20.57
2019-02-11T21:00:27.312Z,23.90
2019-02-11T21:03:18.498Z,25.87
2019-02-11T21:05:57.176Z,47.07
2019-02-11T21:08:25.209Z,47.40
2019-02-11T21:14:05.356Z,47.07
2019-02-11T21:16:33.018Z,40.03
2019-02-11T21:19:00.862Z,37.60
2019-02-11T21:21:28.810Z,30.60
2019-02-11T21:23:56.468Z,29.27
2019-02-11T21:26:24.423Z,27.47
2019-02-11T21:28:52.337Z,27.27
2019-02-11T21:31:19.991Z,24.13
2019-02-11T21:33:47.932Z,22.97
2019-02-11T21:36:15.622Z,20.80
2019-02-11T21:38:43.284Z,20.67
2019-02-11T21:41:10.938Z,19.70
2019-02-11T21:43:38.548Z,20.17
2019-02-11T21:46:07.226Z,24.83
2019-02-11T21:48:34.862Z,20.97
2019-02-11T21:51:02.532Z,20.53
2019-02-11T21:53:30.379Z,32.30
2019-02-11T21:55:58.050Z,23.50
2019-02-11T21:58:25.678Z,23.97
2019-02-11T22:01:01.832Z,24.47
2019-02-11T22:03:22.875Z,26.80
2019-02-11T22:05:50.716Z,28.07
2019-02-11T22:08:18.481Z,31.13
2019-02-11T22:10:46.369Z,30.17
2019-02-11T22:13:14.141Z,30.33
2019-02-11T22:15:41.948Z,36.40
2019-02-11T22:18:09.813Z,36.77
2019-02-11T22:20:37.567Z,36.57
2019-02-11T22:23:05.382Z,36.33
2019-02-11T22:25:33.245Z,33.07
2019-02-11T22:28:01.144Z,33.90
2019-02-11T22:30:28.902Z,34.70
2019-02-11T22:32:57.128Z,32.00
2019-02-11T22:35:25.559Z,32.37
2019-02-11T22:37:53.320Z,32.63
2019-02-11T22:40:21.214Z,34.70
2019-02-11T22:42:48.979Z,33.40
2019-02-11T22:45:17.471Z,33.43
2019-02-11T22:47:45.563Z,32.07
2019-02-11T22:50:14.168Z,34.63
2019-02-11T22:52:41.869Z,34.83
2019-02-11T22:55:09.759Z,37.43
2019-02-11T22:57:37.823Z,38.77
2019-02-11T23:00:10.022Z,41.33
2019-02-11T23:02:39.092Z,41.97
2019-02-11T23:05:07.815Z,39.23
2019-02-11T23:07:35.479Z,44.23
2019-02-11T23:10:03.684Z,45.27
2019-02-11T23:12:31.630Z,50.57
2019-02-11T23:14:59.186Z,54.77
2019-02-11T23:17:27.108Z,62.47
2019-02-11T23:19:54.821Z,67.43
2019-02-11T23:22:22.727Z,68.33
2019-02-11T23:24:50.389Z,61.70
2019-02-11T23:27:18.017Z,55.17
2019-02-11T23:29:45.968Z,50.53
2019-02-11T23:32:13.783Z,48.23
2019-02-11T23:34:41.655Z,48.07
2019-02-11T23:37:09.423Z,45.57
2019-02-11T23:39:37.454Z,46.93
2019-02-11T23:42:05.109Z,50.37
2019-02-11T23:44:32.766Z,52.40
2019-02-11T23:47:00.427Z,43.23
2019-02-11T23:49:28.060Z,48.27
2019-02-11T23:51:55.738Z,50.30
2019-02-11T23:54:23.926Z,44.03
2019-02-11T23:56:51.593Z,48.00
2019-02-11T23:59:19.194Z,46.30
